• Join FlightAware (Why Join?)
  • Login
  • US Flag 
12:48PM EDT


 

Airport Tracker/Info


-or-


 

Live Flight TrackerFlight Track Log ✈ UAL3740 ✈ 17-May-2013 ✈ KPVD - KIAD

Flight Track Log - Related Links

Times and Time Zones

All times are in EDT time to prevent confusion due to time zone crossing. See the UAL3740 flight status page for this flight to view local times or setup timezone preferences in your user account.

Time Position Orientation Groundspeed Altitude Reporting Facility
EDT Latitude Longitude Course Direction KTS MPH feet Rate Location/Type
10:14AM 41.7333 -71.4386 316° Northwest 142 163 800  Level Boston Center
10:15AM 41.7817 -71.5019 316° Northwest 176 203 4,200 2,280 Climbing Boston Center
10:16AM 41.8197 -71.5597 311° West 218 251 6,400 2,580 Climbing Boston Center
10:17AM 41.8600 -71.6372 305° West 245 282 9,400 2,580 Climbing Boston Center
10:18AM 41.9022 -71.7289 302° West 255 293 11,600 2,100 Climbing Boston Center
10:19AM 41.9339 -71.8206 295° West 280 322 13,700 2,160 Climbing Boston Center
10:20AM 41.9408 -71.9544 274° West 317 365 16,000 2,040 Climbing Boston Center
10:21AM 41.9433 -72.0744 272° West 330 380 17,800 1,980 Climbing Boston Center
10:22AM 41.9458 -72.1972 272° West 330 380 20,400 2,160 Climbing Boston Center
10:23AM 41.9481 -72.3425 271° West 330 380 22,600 1,800 Climbing Boston Center
10:24AM 41.9503 -72.4653 271° West 330 380 24,000 1,320 Climbing Boston Center
10:25AM 41.9500 -72.5936 270° West 330 380 25,300 1,320 Climbing Boston Center
10:26AM 41.9539 -72.7417 272° West 330 380 27,000 1,260 Climbing Boston Center
10:27AM 41.9578 -72.8756 272° West 341 392 28,100 1,140 Climbing Boston Center
10:28AM 41.9550 -73.0153 269° West 359 413 29,300 960 Climbing Boston Center
10:29AM 41.9106 -73.1431 245° Southwest 374 430 30,100 780 Climbing Boston Center
10:30AM 41.8408 -73.2622 232° Southwest 379 436 30,900 720 Climbing Boston Center
10:31AM 41.7525 -73.3722 223° Southwest 408 470 31,600 360 Climbing Boston Center
10:33AM 41.6058 -73.5456 221° Southwest 435 501 32,000 120 Climbing New York Center
10:34AM 41.5158 -73.6581 223° Southwest 424 488 32,000  Level New York Center
10:35AM 41.4256 -73.7675 222° Southwest 429 494 32,000  Level New York Center
10:36AM 41.3333 -73.8711 220° Southwest 429 494 32,000  Level New York Center
10:37AM 41.2428 -73.9831 223° Southwest 435 501 32,000  Level New York Center
10:38AM 41.1525 -74.0917 222° Southwest 435 501 32,000  Level New York Center
10:39AM 41.0842 -74.2175 234° Southwest 430 495 32,000  Level New York Center
10:40AM 41.0197 -74.3517 238° Southwest 430 495 32,000 -1,140 Level New York Center
10:41AM 40.9575 -74.4803 237° Southwest 430 495 29,800 -2,040 Descending New York Center
10:42AM 40.8969 -74.6117 239° Southwest 425 489 28,000 -900 Descending New York Center
10:43AM 40.8364 -74.7453 239° Southwest 425 489 28,000  Level New York Center
10:44AM 40.7778 -74.8733 239° Southwest 419 482 28,000  Level New York Center
10:45AM 40.7192 -75.0039 239° Southwest 419 482 28,000  Level New York Center
10:46AM 40.6600 -75.1372 240° Southwest 414 476 28,000  Level New York Center
10:47AM 40.5989 -75.2700 239° Southwest 414 476 28,000 -900 Level New York Center
10:48AM 40.5397 -75.3972 239° Southwest 414 476 26,300 -1,860 Descending New York Center
10:49AM 40.4850 -75.5164 239° Southwest 407 468 24,300 -2,040 Descending New York Center
10:50AM 40.4322 -75.6353 240° Southwest 395 455 22,300 -2,040 Descending New York Center
10:51AM 40.3772 -75.7542 239° Southwest 390 449 20,300 -1,200 Descending New York Center
10:52AM 40.3225 -75.8644 237° Southwest 380 437 20,000 -180 Descending New York Center
10:53AM 40.2700 -75.9694 237° Southwest 380 437 20,000  Level New York Center
10:54AM 40.2169 -76.0850 239° Southwest 372 428 20,000  Level New York Center
10:55AM 40.1658 -76.1981 239° Southwest 372 428 20,000 -240 Level New York Center
10:56AM 40.1014 -76.3261 237° Southwest 372 428 19,600 -840 Descending New York Center
10:58AM 40.0167 -76.5167 240° Southwest 380 437 17,900 -1,020 Descending Potomac TRACON
10:59AM 39.9667 -76.6333 241° Southwest 371 427 17,100 -900 Descending Potomac TRACON
11:00AM 39.9167 -76.7500 241° Southwest 370 426 16,100 -1,020 Descending Potomac TRACON
11:01AM 39.8667 -76.8500 237° Southwest 334 384 15,100 -1,020 Descending Potomac TRACON
11:02AM 39.8167 -76.9500 237° Southwest 328 377 14,100 -840 Descending Potomac TRACON
11:03AM 39.7667 -77.0333 232° Southwest 321 369 13,600 -1,140 Descending Potomac TRACON
11:04AM 39.7333 -77.1333 247° West 308 354 12,000 -1,500 Descending Potomac TRACON
11:05AM 39.6833 -77.2167 232° Southwest 299 344 10,600 -1,260 Descending Potomac TRACON
11:06AM 39.6333 -77.2833 226° Southwest 287 330 9,600 -1,200 Descending Potomac TRACON
11:07AM 39.5500 -77.3000 189° South 293 337 8,400 -1,200 Descending Potomac TRACON
11:08AM 39.4667 -77.3333 197° South 285 328 7,200 -720 Descending Potomac TRACON
11:09AM 39.4000 -77.3667 201° Southwest 286 329 7,000 -720 Descending Potomac TRACON
11:10AM 39.3167 -77.3667 180° South 287 330 5,800 -1,080 Descending Potomac TRACON
11:11AM 39.2500 -77.3667 180° South 277 319 4,900 -900 Descending Potomac TRACON
11:12AM 39.1667 -77.3500 171° South 274 315 4,100 -480 Descending Potomac TRACON
11:13AM 39.0833 -77.3500 180° South 275 316 4,000 -60 Descending Potomac TRACON
11:14AM 39.0167 -77.3500 180° South 276 318 4,000 -300 Level Potomac TRACON
11:15AM 38.9333 -77.3667 189° South 273 314 3,400 -540 Descending Potomac TRACON
11:16AM 38.8667 -77.3667 180° South 252 290 3,000 -540 Descending Potomac TRACON
11:17AM 38.8167 -77.4000 207° Southwest 227 261 2,400 -600 Descending Potomac TRACON
11:18AM 38.8500 -77.4333 322° Northwest 187 215 1,900 -720 Descending Potomac TRACON
11:19AM 38.9000 -77.4333 360° North 140 161 1,000 -900 Descending Potomac TRACON
11:21AM 38.9333 -77.4500 349° North  Level FlightAware Approximate